Uden/Volkel, Netherlands
Current Conditions -  °F | °C
As of 10:43 PM on Friday 24 Oct 2014 (Local Time) from EHVK Reporting Station
Overcast Overcast  
Wind Chill: 54°   Ceiling: 2000
Heat Index: 54°   Visibility: 6mi
Dew Point: 50°   Wind: 10mph
Humidity: 88%   Direction: 190°S
Pressure: 30"   Gusts: NA
Location:  51.64°N, 5.66°E
Report Text: EHVK 242043Z AUTO 19009KT 9999 FEW011 SCT014 OVC020 12/10 Q1016 GRN
Loading
Personal Weather Stations






























Interactive Weather Map
Tropical Storm Tracking
New forecast layout! Learn more

10-Day Weather Forecast

Advertisements
Track Severe Weather on mobile